createdAt,value
2023-09-04T00:00:11.821Z,2.08
2023-09-04T00:02:43.481Z,1.48
2023-09-04T00:05:15.174Z,1.42
2023-09-04T00:07:46.780Z,1.55
2023-09-04T00:10:18.330Z,1.65
2023-09-04T00:12:49.964Z,1.98
2023-09-04T00:15:21.811Z,1.52
2023-09-04T00:17:53.472Z,1.35
2023-09-04T00:20:25.744Z,1.17
2023-09-04T00:22:57.341Z,1.50
2023-09-04T00:25:28.958Z,1.27
2023-09-04T00:28:00.622Z,1.23
2023-09-04T00:30:32.561Z,1.35
2023-09-04T00:33:04.551Z,1.90
2023-09-04T00:35:36.185Z,1.70
2023-09-04T00:38:07.820Z,1.70
2023-09-04T00:40:39.635Z,1.88
2023-09-04T00:43:11.469Z,1.42
2023-09-04T00:45:45.359Z,1.27
2023-09-04T00:48:17.145Z,1.23
2023-09-04T00:50:48.696Z,1.40
2023-09-04T00:53:20.270Z,2.10
2023-09-04T00:55:51.951Z,1.50
2023-09-04T00:58:23.823Z,1.30
2023-09-04T01:00:55.806Z,1.13
2023-09-04T01:03:28.201Z,1.33
2023-09-04T01:05:59.832Z,1.50
2023-09-04T01:08:31.581Z,1.35
2023-09-04T01:11:05.893Z,1.48
2023-09-04T01:13:44.558Z,1.15
2023-09-04T01:16:18.177Z,1.48
2023-09-04T01:18:50.590Z,1.48
2023-09-04T01:21:22.306Z,1.90
2023-09-04T01:23:54.024Z,1.27
2023-09-04T01:26:31.552Z,1.30
2023-09-04T01:29:18.290Z,1.30
2023-09-04T01:32:05.862Z,1.10
2023-09-04T01:34:47.990Z,1.60
2023-09-04T01:37:20.800Z,1.20
2023-09-04T01:39:53.948Z,1.33
2023-09-04T01:42:25.479Z,1.30
2023-09-04T01:44:57.124Z,1.48
2023-09-04T01:47:28.806Z,2.45
2023-09-04T01:50:00.473Z,1.85
2023-09-04T01:52:32.000Z,1.42
2023-09-04T01:55:03.738Z,1.45
2023-09-04T01:57:35.264Z,1.52
2023-09-04T02:00:07.479Z,1.52
2023-09-04T02:02:39.120Z,1.27
2023-09-04T02:05:10.935Z,1.40
2023-09-04T02:07:42.516Z,1.45
2023-09-04T02:10:14.136Z,1.55
2023-09-04T02:12:45.679Z,1.30
2023-09-04T02:15:17.301Z,1.50
2023-09-04T02:17:48.911Z,1.50
2023-09-04T02:20:20.531Z,1.48
2023-09-04T02:22:52.432Z,1.40
2023-09-04T02:25:25.208Z,1.48
2023-09-04T02:27:56.787Z,1.60
2023-09-04T02:30:28.358Z,1.63
2023-09-04T02:33:01.301Z,1.55
2023-09-04T02:35:33.215Z,1.98
2023-09-04T02:38:04.921Z,1.60
2023-09-04T02:40:37.090Z,1.90
2023-09-04T02:45:41.489Z,1.98
2023-09-04T02:48:13.110Z,2.35
2023-09-04T02:50:44.811Z,1.90
2023-09-04T02:53:16.372Z,1.83
2023-09-04T02:55:51.416Z,2.13
2023-09-04T02:58:23.441Z,2.05
2023-09-04T03:00:55.381Z,2.13
2023-09-04T03:03:27.027Z,2.40
2023-09-04T03:06:07.103Z,2.00
2023-09-04T03:08:41.605Z,2.25
2023-09-04T03:11:14.929Z,2.35
2023-09-04T03:13:46.625Z,2.17
2023-09-04T03:16:18.274Z,2.75
2023-09-04T03:18:49.946Z,2.22
2023-09-04T03:21:21.520Z,2.53
2023-09-04T03:23:53.186Z,2.65
2023-09-04T03:26:24.772Z,2.67
2023-09-04T03:28:57.126Z,2.65
2023-09-04T03:31:28.757Z,2.40
2023-09-04T03:34:01.670Z,2.67
2023-09-04T03:36:33.247Z,2.75
2023-09-04T03:39:07.874Z,3.42
2023-09-04T03:41:39.566Z,3.05
2023-09-04T03:44:11.160Z,2.67
2023-09-04T03:46:43.052Z,2.60
2023-09-04T03:49:14.879Z,3.03
2023-09-04T03:51:46.437Z,3.08
2023-09-04T03:54:17.977Z,2.30
2023-09-04T03:56:50.024Z,2.80
2023-09-04T03:59:21.589Z,3.20
2023-09-04T04:01:53.232Z,2.90
2023-09-04T04:04:24.853Z,2.67
2023-09-04T04:06:56.953Z,2.30
2023-09-04T04:09:28.559Z,2.55
2023-09-04T04:12:00.256Z,2.67
2023-09-04T04:14:31.779Z,2.83
2023-09-04T04:17:03.386Z,9.45
2023-09-04T04:19:35.311Z,8.70
2023-09-04T04:22:06.902Z,4.38
2023-09-04T04:24:38.489Z,3.63
2023-09-04T04:27:10.977Z,2.47
2023-09-04T04:29:44.290Z,2.72
2023-09-04T04:32:16.488Z,2.63
2023-09-04T04:37:19.470Z,2.97
2023-09-04T04:39:52.887Z,3.15
2023-09-04T04:42:27.569Z,2.60
2023-09-04T04:44:59.166Z,3.10
2023-09-04T04:47:30.803Z,2.97
2023-09-04T04:50:02.937Z,3.05
2023-09-04T04:55:06.436Z,3.00
2023-09-04T04:57:38.063Z,2.90
2023-09-04T05:00:09.990Z,2.75
2023-09-04T05:02:41.892Z,3.08
2023-09-04T05:05:13.494Z,3.33
2023-09-04T05:07:45.066Z,4.15
2023-09-04T05:10:16.709Z,3.60
2023-09-04T05:12:48.288Z,4.78
2023-09-04T05:15:19.856Z,3.63
2023-09-04T05:17:51.520Z,3.58
2023-09-04T05:20:23.142Z,3.45
2023-09-04T05:22:54.752Z,3.22
2023-09-04T05:25:26.295Z,2.92
2023-09-04T05:27:57.863Z,3.70
2023-09-04T05:30:29.410Z,3.78
2023-09-04T05:33:01.025Z,3.85
2023-09-04T05:35:32.561Z,3.80
2023-09-04T05:38:04.360Z,3.40
2023-09-04T05:40:35.987Z,3.30
2023-09-04T05:43:07.535Z,4.43
2023-09-04T05:45:40.187Z,3.65
2023-09-04T05:48:11.797Z,3.08
2023-09-04T05:50:44.355Z,3.58
2023-09-04T05:53:19.466Z,3.92
2023-09-04T05:56:11.900Z,3.58
2023-09-04T05:58:44.259Z,3.80
2023-09-04T06:01:17.609Z,3.88
2023-09-04T06:03:50.005Z,3.78
2023-09-04T06:06:21.785Z,4.13
2023-09-04T06:08:53.363Z,3.97
2023-09-04T06:11:24.992Z,4.50
2023-09-04T06:13:56.601Z,4.03
2023-09-04T06:16:28.218Z,3.58
2023-09-04T06:18:59.844Z,4.13
2023-09-04T06:21:31.480Z,3.60
2023-09-04T06:24:03.171Z,4.07
2023-09-04T06:26:34.684Z,4.00
2023-09-04T06:29:06.277Z,4.20
2023-09-04T06:31:37.951Z,4.15
2023-09-04T06:34:09.532Z,4.18
2023-09-04T06:36:41.067Z,3.95
2023-09-04T06:39:12.676Z,3.65
2023-09-04T06:41:44.220Z,3.60
2023-09-04T06:44:15.775Z,3.75
2023-09-04T06:46:47.313Z,3.78
2023-09-04T06:49:18.880Z,3.72
2023-09-04T06:51:50.412Z,4.07
2023-09-04T06:54:21.993Z,3.78
2023-09-04T06:56:53.683Z,3.63
2023-09-04T06:59:25.238Z,3.42
2023-09-04T07:01:56.789Z,4.78
2023-09-04T07:04:28.364Z,3.10
2023-09-04T07:06:59.864Z,3.10
2023-09-04T07:09:31.420Z,3.28
2023-09-04T07:12:03.141Z,2.95
2023-09-04T07:14:34.752Z,3.42
2023-09-04T07:17:09.458Z,3.00
2023-09-04T07:19:41.726Z,3.25
2023-09-04T07:22:13.304Z,3.28
2023-09-04T07:24:44.907Z,3.20
2023-09-04T07:27:16.442Z,3.25
2023-09-04T07:29:48.058Z,3.20
2023-09-04T07:32:19.594Z,2.63
2023-09-04T07:34:56.646Z,2.42
2023-09-04T07:37:28.507Z,2.65
2023-09-04T07:40:00.157Z,2.92
2023-09-04T07:42:31.895Z,2.65
2023-09-04T07:45:04.700Z,2.80
2023-09-04T07:47:36.219Z,2.88
2023-09-04T07:50:08.130Z,2.45
2023-09-04T07:52:39.728Z,2.53
2023-09-04T07:55:11.419Z,2.67
2023-09-04T07:57:44.324Z,2.30
2023-09-04T08:00:22.687Z,2.63
2023-09-04T08:02:54.379Z,2.00
2023-09-04T08:05:26.100Z,2.20
2023-09-04T08:07:57.654Z,2.10
2023-09-04T08:10:29.263Z,1.55
2023-09-04T08:13:01.089Z,2.15
2023-09-04T08:15:32.669Z,2.00
2023-09-04T08:18:04.746Z,2.17
2023-09-04T08:20:37.338Z,1.70
2023-09-04T08:23:10.680Z,1.58
2023-09-04T08:25:42.310Z,2.22
2023-09-04T08:28:13.827Z,1.60
2023-09-04T08:30:45.461Z,2.00
2023-09-04T08:33:17.017Z,2.03
2023-09-04T08:35:48.595Z,2.05
2023-09-04T08:38:20.150Z,1.85
2023-09-04T08:40:51.838Z,1.80
2023-09-04T08:43:26.390Z,2.03
2023-09-04T08:46:00.854Z,1.67
2023-09-04T08:48:35.249Z,1.70
2023-09-04T08:53:59.656Z,1.58
2023-09-04T08:56:33.100Z,1.35
2023-09-04T08:59:04.709Z,2.35
2023-09-04T09:01:37.773Z,1.70
2023-09-04T09:04:10.336Z,1.63
2023-09-04T09:06:43.365Z,1.98
2023-09-04T09:09:17.198Z,1.83
2023-09-04T09:11:55.125Z,1.45
2023-09-04T09:14:28.113Z,1.27
2023-09-04T09:17:07.017Z,1.50
2023-09-04T09:19:39.469Z,1.30
2023-09-04T09:22:15.989Z,1.25
2023-09-04T09:24:53.520Z,1.50
2023-09-04T09:27:32.413Z,1.50
2023-09-04T09:30:04.705Z,1.23
2023-09-04T09:32:36.950Z,2.00
2023-09-04T09:35:10.240Z,1.42
2023-09-04T09:37:41.811Z,1.30
2023-09-04T09:40:16.658Z,1.00
2023-09-04T09:42:48.329Z,1.20
2023-09-04T09:45:20.674Z,1.40
2023-09-04T09:50:27.822Z,1.20
2023-09-04T09:53:01.229Z,1.20
2023-09-04T09:55:34.625Z,1.05
2023-09-04T09:58:08.205Z,1.13
2023-09-04T10:00:40.469Z,1.58
2023-09-04T10:03:13.138Z,1.10
2023-09-04T10:05:46.004Z,1.27
2023-09-04T10:08:18.165Z,0.95
2023-09-04T10:10:50.804Z,1.30
2023-09-04T10:13:27.925Z,1.25
2023-09-04T10:16:03.609Z,1.40
2023-09-04T10:18:41.628Z,1.67
2023-09-04T10:21:18.370Z,1.35
2023-09-04T10:23:57.130Z,1.27
2023-09-04T10:26:43.066Z,1.20
2023-09-04T10:29:19.300Z,1.40
2023-09-04T10:31:51.875Z,1.40
2023-09-04T10:34:23.652Z,1.27
2023-09-04T10:36:55.243Z,1.17
2023-09-04T10:39:27.345Z,1.10
2023-09-04T10:41:59.331Z,1.23
2023-09-04T10:44:48.193Z,1.20
2023-09-04T10:47:20.145Z,1.45
2023-09-04T10:49:52.400Z,1.17
2023-09-04T10:52:42.199Z,1.40
2023-09-04T10:55:14.776Z,1.10
2023-09-04T10:58:06.350Z,1.27
2023-09-04T11:00:42.065Z,1.40
2023-09-04T11:03:16.303Z,0.90
2023-09-04T11:06:03.025Z,1.40
2023-09-04T11:08:41.563Z,1.30
2023-09-04T11:11:13.167Z,1.10
2023-09-04T11:13:45.361Z,1.30
2023-09-04T11:16:17.197Z,1.05
2023-09-04T11:21:33.669Z,1.35
2023-09-04T11:24:05.848Z,1.30
2023-09-04T11:26:37.634Z,1.55
2023-09-04T11:31:44.740Z,1.30
2023-09-04T11:34:23.784Z,1.23
2023-09-04T11:39:26.875Z,1.08
2023-09-04T11:42:01.496Z,1.30
2023-09-04T11:44:33.085Z,1.42
2023-09-04T11:47:05.221Z,1.20
2023-09-04T11:49:36.851Z,1.98
2023-09-04T11:52:08.564Z,1.30
2023-09-04T11:57:13.327Z,1.20
2023-09-04T11:59:44.883Z,1.30
2023-09-04T12:02:16.831Z,1.45
2023-09-04T12:04:48.571Z,1.40
2023-09-04T12:09:51.916Z,1.38
2023-09-04T12:12:23.486Z,1.63
2023-09-04T12:14:54.997Z,1.95
2023-09-04T12:17:30.820Z,1.30
2023-09-04T12:20:12.096Z,1.60
2023-09-04T12:22:54.941Z,1.25
2023-09-04T12:25:33.277Z,1.45
2023-09-04T12:28:11.884Z,1.25
2023-09-04T12:30:47.471Z,1.50
2023-09-04T12:33:19.166Z,1.80
2023-09-04T12:38:29.905Z,1.98
2023-09-04T12:41:03.123Z,1.25
2023-09-04T12:43:35.576Z,1.42
2023-09-04T12:46:07.551Z,1.50
2023-09-04T12:48:39.166Z,1.45
2023-09-04T12:51:10.828Z,1.88
2023-09-04T12:56:13.842Z,1.83
2023-09-04T12:58:45.440Z,1.95
2023-09-04T13:01:17.426Z,1.52
2023-09-04T13:03:49.149Z,1.55
2023-09-04T13:06:20.866Z,1.73
2023-09-04T13:11:24.109Z,2.10
2023-09-04T13:13:55.745Z,2.38
2023-09-04T13:18:58.821Z,1.75
2023-09-04T13:24:02.101Z,1.73
2023-09-04T13:29:05.125Z,1.55
2023-09-04T13:34:08.167Z,1.73
2023-09-04T13:36:39.679Z,1.88
2023-09-04T13:39:11.270Z,1.60
2023-09-04T13:44:14.411Z,1.80
2023-09-04T13:46:46.099Z,1.90
2023-09-04T13:51:49.273Z,1.92
2023-09-04T13:54:20.910Z,2.00
2023-09-04T13:59:23.973Z,1.52
2023-09-04T14:04:27.102Z,2.22
2023-09-04T14:06:58.668Z,1.52
2023-09-04T14:09:30.247Z,2.03
2023-09-04T14:12:02.033Z,1.70
2023-09-04T14:14:33.733Z,1.50
2023-09-04T14:29:43.793Z,2.05
2023-09-04T14:32:15.563Z,2.47
2023-09-04T14:34:47.186Z,2.40
2023-09-04T14:37:18.930Z,2.35
2023-09-04T14:49:59.790Z,2.90
2023-09-04T14:52:31.339Z,2.88
2023-09-04T14:55:03.010Z,3.20
2023-09-04T14:57:34.562Z,2.95
2023-09-04T15:00:07.371Z,3.20
2023-09-04T15:02:39.056Z,3.03
2023-09-04T15:05:10.736Z,3.35
2023-09-04T15:07:45.146Z,3.28
2023-09-04T15:10:17.616Z,3.50
2023-09-04T15:12:49.340Z,3.55
2023-09-04T15:15:21.031Z,3.70
2023-09-04T15:17:52.629Z,3.58
2023-09-04T15:20:24.419Z,3.28
2023-09-04T15:22:55.978Z,3.13
2023-09-04T15:25:27.558Z,3.47
2023-09-04T15:28:00.410Z,3.75
2023-09-04T15:30:31.997Z,3.35
2023-09-04T15:33:03.725Z,3.40
2023-09-04T15:35:35.369Z,3.03
2023-09-04T15:38:07.505Z,3.10
2023-09-04T15:40:39.049Z,3.00
2023-09-04T15:43:10.583Z,3.00
2023-09-04T15:45:42.417Z,3.28
2023-09-04T15:48:16.022Z,3.13
2023-09-04T15:50:50.839Z,3.15
2023-09-04T15:53:24.568Z,3.33
2023-09-04T15:55:56.907Z,3.10
2023-09-04T15:58:28.948Z,3.35
2023-09-04T16:01:01.651Z,3.03
2023-09-04T16:03:33.822Z,3.80
2023-09-04T16:06:05.523Z,3.35
2023-09-04T16:08:37.478Z,2.92
2023-09-04T16:11:09.052Z,3.10
2023-09-04T16:13:40.610Z,2.97
2023-09-04T16:16:12.312Z,2.95
2023-09-04T16:18:43.909Z,3.13
2023-09-04T16:21:16.091Z,3.17
2023-09-04T16:23:47.618Z,2.70
2023-09-04T16:26:19.250Z,2.70
2023-09-04T16:28:51.446Z,2.58
2023-09-04T16:31:25.248Z,2.50
2023-09-04T16:33:56.796Z,2.30
2023-09-04T16:36:28.485Z,2.20
2023-09-04T16:39:00.618Z,2.35
2023-09-04T16:41:32.210Z,1.85
2023-09-04T16:44:03.910Z,2.40
2023-09-04T16:46:36.158Z,2.10
2023-09-04T16:49:08.029Z,2.30
2023-09-04T16:51:53.983Z,1.95
2023-09-04T16:54:28.345Z,2.20
2023-09-04T16:57:00.025Z,2.03
2023-09-04T16:59:31.601Z,2.40
2023-09-04T17:04:34.623Z,2.80
2023-09-04T17:07:06.570Z,2.30
2023-09-04T17:09:38.123Z,2.10
2023-09-04T17:12:10.385Z,2.67
2023-09-04T17:14:42.143Z,2.30
2023-09-04T17:19:45.246Z,2.65
2023-09-04T17:22:16.850Z,2.42
2023-09-04T17:24:48.620Z,2.40
2023-09-04T17:27:20.269Z,2.22
2023-09-04T17:29:52.964Z,2.35
2023-09-04T17:32:24.611Z,2.22
2023-09-04T17:34:56.213Z,2.83
2023-09-04T17:37:27.814Z,2.13
2023-09-04T17:39:59.600Z,2.30
2023-09-04T17:45:02.623Z,2.05
2023-09-04T17:47:34.180Z,2.13
2023-09-04T17:50:06.170Z,2.47
2023-09-04T17:52:37.733Z,2.42
2023-09-04T17:55:09.451Z,2.20
2023-09-04T17:57:41.075Z,2.40
2023-09-04T18:00:13.072Z,2.35
2023-09-04T18:02:44.748Z,1.90
2023-09-04T18:05:16.496Z,2.22
2023-09-04T18:07:49.263Z,2.20
2023-09-04T18:10:20.804Z,2.20
2023-09-04T18:12:52.386Z,2.33
2023-09-04T18:15:24.092Z,2.63
2023-09-04T18:17:55.834Z,2.65
2023-09-04T18:22:58.791Z,2.07
2023-09-04T18:25:30.334Z,2.40
2023-09-04T18:28:02.318Z,2.53
2023-09-04T18:30:33.959Z,2.70
2023-09-04T18:33:05.566Z,2.45
2023-09-04T18:35:37.190Z,2.83
2023-09-04T18:38:08.769Z,2.85
2023-09-04T18:40:40.304Z,2.78
2023-09-04T18:43:11.888Z,2.20
2023-09-04T18:45:45.383Z,2.65
2023-09-04T18:48:17.093Z,2.40
2023-09-04T18:50:51.629Z,2.05
2023-09-04T18:53:23.805Z,2.20
2023-09-04T18:55:58.427Z,2.20
2023-09-04T18:58:30.621Z,2.10
2023-09-04T19:01:03.691Z,2.08
2023-09-04T19:03:35.851Z,2.30
2023-09-04T19:06:07.891Z,1.65
2023-09-04T19:08:39.536Z,1.85
2023-09-04T19:11:11.142Z,2.53
2023-09-04T19:13:42.766Z,2.25
2023-09-04T19:16:15.288Z,2.10
2023-09-04T19:18:47.246Z,2.08
2023-09-04T19:23:50.637Z,2.22
2023-09-04T19:28:54.223Z,2.08
2023-09-04T19:31:26.098Z,2.15
2023-09-04T19:33:57.730Z,2.22
2023-09-04T19:36:29.284Z,2.08
2023-09-04T19:39:00.850Z,1.58
2023-09-04T19:41:32.441Z,2.35
2023-09-04T19:44:04.642Z,2.00
2023-09-04T19:46:36.247Z,1.80
2023-09-04T19:49:07.993Z,1.85
2023-09-04T19:51:39.552Z,2.08
2023-09-04T19:54:11.119Z,2.30
2023-09-04T19:56:42.685Z,2.80
2023-09-04T19:59:14.429Z,1.95
2023-09-04T20:01:46.053Z,2.00
2023-09-04T20:04:17.745Z,2.47
2023-09-04T20:06:49.269Z,2.40
2023-09-04T20:09:20.839Z,2.03
2023-09-04T20:11:52.382Z,2.30
2023-09-04T20:14:23.936Z,2.28
2023-09-04T20:16:55.676Z,2.22
2023-09-04T20:19:27.421Z,1.88
2023-09-04T20:21:59.185Z,2.20
2023-09-04T20:24:30.759Z,1.98
2023-09-04T20:27:02.328Z,1.73
2023-09-04T20:29:33.942Z,1.83
2023-09-04T20:32:05.900Z,2.17
2023-09-04T20:37:09.097Z,2.30
2023-09-04T20:39:40.791Z,1.88
2023-09-04T20:42:12.462Z,2.03
2023-09-04T20:44:45.579Z,1.80
2023-09-04T20:47:17.166Z,2.03
2023-09-04T20:49:48.722Z,1.60
2023-09-04T20:52:20.354Z,2.00
2023-09-04T20:54:51.908Z,1.83
2023-09-04T20:57:23.501Z,1.83
2023-09-04T20:59:55.173Z,1.58
2023-09-04T21:02:27.300Z,1.70
2023-09-04T21:04:59.098Z,1.95
2023-09-04T21:07:30.682Z,1.70
2023-09-04T21:10:02.487Z,1.83
2023-09-04T21:12:52.999Z,1.80
2023-09-04T21:15:43.141Z,1.60
2023-09-04T21:18:33.621Z,1.85
2023-09-04T21:21:23.865Z,1.92
2023-09-04T21:24:14.343Z,1.50
2023-09-04T21:27:04.399Z,2.33
2023-09-04T21:29:54.868Z,1.80
2023-09-04T21:32:45.288Z,1.60
2023-09-04T21:35:35.464Z,1.60
2023-09-04T21:38:25.991Z,1.85
2023-09-04T21:41:16.285Z,2.13
2023-09-04T21:44:06.770Z,1.60
2023-09-04T21:46:57.248Z,1.70
2023-09-04T21:49:47.537Z,1.90
2023-09-04T21:52:37.620Z,1.80
2023-09-04T21:55:28.282Z,1.80
2023-09-04T21:58:18.634Z,2.08
2023-09-04T22:01:09.314Z,1.50
2023-09-04T22:03:59.963Z,1.95
2023-09-04T22:06:50.196Z,1.75
2023-09-04T22:09:39.986Z,2.17
2023-09-04T22:12:30.310Z,2.20
2023-09-04T22:15:20.362Z,1.40
2023-09-04T22:18:12.418Z,1.75
2023-09-04T22:21:02.608Z,1.88
2023-09-04T22:23:52.577Z,1.80
2023-09-04T22:26:42.938Z,1.70
2023-09-04T22:29:33.170Z,1.65
2023-09-04T22:32:24.121Z,1.80
2023-09-04T22:35:15.499Z,1.88
2023-09-04T22:38:05.908Z,1.80
2023-09-04T22:40:56.138Z,2.15
2023-09-04T22:43:46.426Z,1.98
2023-09-04T22:46:36.921Z,1.75
2023-09-04T22:49:27.407Z,1.98
2023-09-04T22:52:17.458Z,2.03
2023-09-04T22:55:07.872Z,1.88
2023-09-04T22:57:57.962Z,1.60
2023-09-04T23:00:47.962Z,1.60
2023-09-04T23:03:38.282Z,1.88
2023-09-04T23:06:28.417Z,1.73
2023-09-04T23:09:18.664Z,1.60
2023-09-04T23:12:09.124Z,2.13
2023-09-04T23:14:59.033Z,1.83
2023-09-04T23:17:49.336Z,1.52
2023-09-04T23:20:39.449Z,1.85
2023-09-04T23:23:12.165Z,1.73
2023-09-04T23:25:48.341Z,1.80
2023-09-04T23:28:23.592Z,1.60
2023-09-04T23:30:58.072Z,1.60
2023-09-04T23:33:46.315Z,2.25
2023-09-04T23:36:36.898Z,1.90
2023-09-04T23:39:20.484Z,1.75
2023-09-04T23:42:10.772Z,1.90
2023-09-04T23:45:00.546Z,1.63
2023-09-04T23:47:32.477Z,1.85
2023-09-04T23:50:05.352Z,2.30
2023-09-04T23:52:37.255Z,1.88
2023-09-04T23:55:14.194Z,1.90
2023-09-04T23:57:50.345Z,1.73
